Time;durP1;ratioP1;P1;durP2;ratioP2;P2;SDS_P1;SDS_P2;PMS_P1;PMS_P2;Temp;Humidity;BMP_temperature;BMP_pressure;BME280_temperature;BME280_humidity;BME280_pressure;Samples;Min_cycle;Max_cycle;Signal;HPM_P1;HPM_P2
2022/12/06 00:02:12;;;;;;;11.20;7.22;;;10.70;99.90;;;;;;5057346;28;20060;-73
2022/12/06 00:04:38;;;;;;;11.50;7.72;;;10.70;99.90;;;;;;5062313;28;20048;-72
2022/12/06 00:07:04;;;;;;;12.82;7.07;;;10.80;99.90;;;;;;5049840;28;20064;-73
2022/12/06 00:09:32;;;;;;;12.30;7.15;;;10.80;99.90;;;;;;5034443;28;20495;-73
2022/12/06 00:11:58;;;;;;;13.18;7.45;;;10.80;99.90;;;;;;5043908;28;20030;-72
2022/12/06 00:14:24;;;;;;;12.75;7.00;;;10.80;99.90;;;;;;5047758;28;20033;-72
2022/12/06 00:16:50;;;;;;;9.48;6.28;;;10.80;99.90;;;;;;5036064;28;20046;-72
2022/12/06 00:19:19;;;;;;;11.02;6.18;;;10.80;99.90;;;;;;5056966;28;20484;-72
2022/12/06 00:21:46;;;;;;;11.50;7.47;;;10.80;99.90;;;;;;5063613;28;20159;-72
2022/12/06 00:24:17;;;;;;;8.88;5.90;;;10.80;99.90;;;;;;5058120;28;20112;-73
2022/12/06 00:26:45;;;;;;;9.60;5.65;;;10.80;99.90;;;;;;5047802;28;20040;-73
2022/12/06 00:29:23;;;;;;;10.38;5.75;;;10.80;99.90;;;;;;5056670;28;20052;-73
2022/12/06 00:31:50;;;;;;;12.23;6.28;;;10.80;99.90;;;;;;5071441;28;20033;-72
2022/12/06 00:34:15;;;;;;;7.60;4.93;;;10.90;99.90;;;;;;5049682;28;20653;-73
2022/12/06 00:36:42;;;;;;;8.63;4.75;;;10.80;99.90;;;;;;5058899;28;20108;-73
2022/12/06 00:39:13;;;;;;;10.32;4.90;;;10.90;99.90;;;;;;5062175;28;20554;-73
2022/12/06 00:41:40;;;;;;;7.63;5.13;;;10.90;99.90;;;;;;5057983;28;20048;-74
2022/12/06 00:44:06;;;;;;;7.57;4.63;;;10.90;99.90;;;;;;5060888;28;20033;-73
2022/12/06 00:46:33;;;;;;;7.43;4.45;;;11.00;99.90;;;;;;5059073;28;20090;-73
2022/12/06 00:49:01;;;;;;;8.10;4.32;;;11.00;99.90;;;;;;5056205;28;20462;-72
2022/12/06 00:51:29;;;;;;;7.75;4.13;;;11.00;99.90;;;;;;5059040;28;20039;-73
2022/12/06 00:53:55;;;;;;;6.88;3.90;;;11.10;99.90;;;;;;5063821;28;20044;-73
2022/12/06 00:56:21;;;;;;;6.15;3.40;;;11.10;99.90;;;;;;5064583;28;20066;-75
2022/12/06 00:58:47;;;;;;;7.35;4.25;;;11.10;99.90;;;;;;5075270;28;20063;-76
2022/12/06 01:01:16;;;;;;;9.52;3.85;;;11.20;99.90;;;;;;5061198;28;20021;-74
2022/12/06 01:03:44;;;;;;;6.82;3.95;;;11.20;99.90;;;;;;5062160;28;20160;-75
2022/12/06 01:06:14;;;;;;;6.35;3.70;;;11.10;99.90;;;;;;5055351;28;20041;-75
2022/12/06 01:08:42;;;;;;;6.95;3.60;;;11.20;99.90;;;;;;5065514;28;20028;-76
2022/12/06 01:11:10;;;;;;;7.97;3.90;;;11.20;99.90;;;;;;5056729;28;20056;-75
2022/12/06 01:13:36;;;;;;;7.95;4.10;;;11.20;99.90;;;;;;5060970;28;20040;-75
2022/12/06 01:16:14;;;;;;;7.13;3.90;;;11.10;99.90;;;;;;5058661;28;20045;-74
2022/12/06 01:18:41;;;;;;;6.75;4.30;;;11.10;99.90;;;;;;5052482;28;20033;-74
2022/12/06 01:21:13;;;;;;;6.97;4.03;;;11.10;99.90;;;;;;5056751;28;20025;-75
2022/12/06 01:23:41;;;;;;;6.32;3.80;;;11.10;99.90;;;;;;5063714;28;20029;-75
2022/12/06 01:26:11;;;;;;;7.78;4.50;;;11.00;99.90;;;;;;5056384;28;20044;-75
2022/12/06 01:28:37;;;;;;;6.65;3.65;;;11.00;99.90;;;;;;5059245;28;20154;-75
2022/12/06 01:31:06;;;;;;;7.60;4.68;;;11.00;99.90;;;;;;5058065;28;20033;-75
2022/12/06 01:33:34;;;;;;;6.93;4.40;;;11.00;99.90;;;;;;5050951;28;20080;-75
2022/12/06 01:36:00;;;;;;;7.97;4.22;;;11.00;99.90;;;;;;5045475;28;20059;-75
2022/12/06 01:38:26;;;;;;;7.60;4.47;;;10.90;99.90;;;;;;5060764;28;20028;-74
2022/12/06 01:40:52;;;;;;;7.25;4.38;;;10.90;99.90;;;;;;5055414;28;20052;-75
2022/12/06 01:43:38;;;;;;;9.05;4.20;;;10.90;99.90;;;;;;5057342;28;20369;-75
2022/12/06 01:46:24;;;;;;;7.32;4.80;;;10.90;99.90;;;;;;5057147;28;20047;-75
2022/12/06 01:49:04;;;;;;;7.90;4.45;;;10.80;99.90;;;;;;5057614;28;20021;-75
2022/12/06 01:51:30;;;;;;;8.80;5.20;;;10.80;99.90;;;;;;5057120;28;20093;-75
2022/12/06 01:53:59;;;;;;;10.35;4.38;;;10.80;99.90;;;;;;5038834;28;20432;-74
2022/12/06 01:56:25;;;;;;;8.65;5.15;;;10.80;99.90;;;;;;5047984;28;20157;-75
2022/12/06 01:58:54;;;;;;;10.57;5.40;;;10.80;99.90;;;;;;5051358;28;20045;-75
2022/12/06 02:01:20;;;;;;;7.82;5.50;;;10.80;99.90;;;;;;5032319;28;20103;-75
2022/12/06 02:03:47;;;;;;;8.43;5.32;;;10.80;99.90;;;;;;5034761;28;20025;-74
2022/12/06 02:06:16;;;;;;;8.40;4.57;;;10.80;99.90;;;;;;5036274;28;20037;-74
2022/12/06 02:08:43;;;;;;;8.00;4.95;;;10.80;99.90;;;;;;5043301;28;20479;-74
2022/12/06 02:11:09;;;;;;;8.68;4.45;;;10.80;99.90;;;;;;5053574;28;20674;-75
2022/12/06 02:13:36;;;;;;;10.65;5.50;;;10.70;99.90;;;;;;5042222;28;20079;-74
2022/12/06 02:16:32;;;;;;;11.20;5.90;;;10.80;99.90;;;;;;5041033;28;20048;-74
2022/12/06 02:19:29;;;;;;;8.55;5.75;;;10.80;99.90;;;;;;5039560;28;20124;-73
2022/12/06 02:22:09;;;;;;;9.93;5.40;;;10.90;99.90;;;;;;5057954;28;20033;-72
2022/12/06 02:24:48;;;;;;;10.82;5.55;;;10.90;99.90;;;;;;5064483;28;20063;-73
2022/12/06 02:27:36;;;;;;;10.20;5.45;;;11.00;99.90;;;;;;5055588;28;20033;-72
2022/12/06 02:30:17;;;;;;;9.35;5.72;;;11.00;99.90;;;;;;5067420;28;20040;-73
2022/12/06 02:32:50;;;;;;;10.60;5.78;;;11.00;99.90;;;;;;5068241;28;20116;-72
2022/12/06 02:35:44;;;;;;;9.15;5.72;;;11.00;99.90;;;;;;5056458;28;20028;-73
2022/12/06 02:38:15;;;;;;;10.15;5.35;;;11.00;99.90;;;;;;5060773;28;20487;-72
2022/12/06 02:40:46;;;;;;;11.27;5.97;;;11.00;99.90;;;;;;5057681;28;20647;-73
2022/12/06 02:43:17;;;;;;;9.32;4.95;;;11.10;99.90;;;;;;5053908;28;20052;-72
2022/12/06 02:45:51;;;;;;;10.25;6.05;;;11.10;99.90;;;;;;5058120;28;20086;-73
2022/12/06 02:48:19;;;;;;;12.25;6.95;;;11.20;99.90;;;;;;5054342;28;20133;-73
2022/12/06 02:51:08;;;;;;;10.90;7.03;;;11.20;99.90;;;;;;5056363;28;20128;-73
2022/12/06 02:53:37;;;;;;;14.60;6.97;;;11.20;99.90;;;;;;5066602;28;20032;-73
2022/12/06 02:56:04;;;;;;;11.25;7.03;;;11.20;99.90;;;;;;5060569;28;20068;-75
2022/12/06 02:58:39;;;;;;;10.77;5.80;;;11.20;99.90;;;;;;5055722;28;20190;-74
2022/12/06 03:01:22;;;;;;;12.85;6.88;;;11.20;99.90;;;;;;5054349;28;20032;-74
2022/12/06 03:04:18;;;;;;;12.15;6.68;;;11.20;99.90;;;;;;5065246;28;20105;-74
2022/12/06 03:07:19;;;;;;;12.52;6.63;;;11.20;99.90;;;;;;5051958;28;20036;-73
2022/12/06 03:10:09;;;;;;;11.98;6.47;;;11.20;99.90;;;;;;5054951;28;20858;-73
2022/12/06 03:12:44;;;;;;;10.85;5.88;;;11.20;99.90;;;;;;5069391;28;20029;-72
2022/12/06 03:15:18;;;;;;;8.75;5.72;;;11.20;99.90;;;;;;5058207;28;20041;-72
2022/12/06 03:17:52;;;;;;;10.93;5.90;;;11.20;99.90;;;;;;5054177;28;20108;-73
2022/12/06 03:20:32;;;;;;;11.13;6.05;;;11.20;99.90;;;;;;5055744;28;20064;-73
2022/12/06 03:23:05;;;;;;;9.15;5.72;;;11.20;99.90;;;;;;5056857;28;20851;-73
2022/12/06 03:25:34;;;;;;;8.90;5.05;;;11.30;99.90;;;;;;5036083;28;20396;-73
2022/12/06 03:28:02;;;;;;;9.45;5.60;;;11.30;99.90;;;;;;5040351;28;20053;-71
2022/12/06 03:30:31;;;;;;;10.38;6.28;;;11.20;99.90;;;;;;5038421;28;20045;-72
2022/12/06 03:32:59;;;;;;;8.93;4.90;;;11.20;99.90;;;;;;5042476;28;20381;-73
2022/12/06 03:35:34;;;;;;;9.52;5.20;;;11.10;99.90;;;;;;5033487;28;20342;-73
2022/12/06 03:38:20;;;;;;;9.43;5.32;;;11.10;99.90;;;;;;5035285;28;20041;-73
2022/12/06 03:40:49;;;;;;;10.20;5.55;;;11.20;99.90;;;;;;5036753;28;20037;-73
2022/12/06 03:43:16;;;;;;;10.15;5.80;;;11.10;99.90;;;;;;5036491;28;20060;-72
2022/12/06 03:46:06;;;;;;;8.80;5.57;;;11.10;99.90;;;;;;5037133;28;20091;-73
2022/12/06 03:48:42;;;;;;;9.82;5.60;;;11.20;99.90;;;;;;5074226;28;20032;-73
2022/12/06 03:51:14;;;;;;;10.75;5.88;;;11.20;99.90;;;;;;5053797;28;20032;-72
2022/12/06 03:53:52;;;;;;;11.30;5.70;;;11.20;99.90;;;;;;5061801;28;20024;-73
2022/12/06 03:56:21;;;;;;;9.18;5.95;;;11.20;99.90;;;;;;5050893;28;20029;-72
2022/12/06 03:58:53;;;;;;;10.20;5.95;;;11.30;99.90;;;;;;5059824;28;20776;-72
2022/12/06 04:01:19;;;;;;;10.15;6.03;;;11.20;99.90;;;;;;5051954;28;20037;-72
2022/12/06 04:03:45;;;;;;;9.15;5.28;;;11.30;99.90;;;;;;5052872;28;20044;-73
2022/12/06 04:06:11;;;;;;;8.77;5.78;;;11.20;99.90;;;;;;5053787;28;20067;-72
2022/12/06 04:08:37;;;;;;;8.70;5.10;;;11.20;99.90;;;;;;5054424;28;20048;-73
2022/12/06 04:11:03;;;;;;;9.02;5.80;;;11.20;99.90;;;;;;5054730;28;20037;-73
2022/12/06 04:13:30;;;;;;;9.65;5.82;;;11.20;99.90;;;;;;5057155;28;20057;-73
2022/12/06 04:15:58;;;;;;;10.15;5.82;;;11.20;99.90;;;;;;5054599;28;20055;-73
2022/12/06 04:18:25;;;;;;;9.70;4.40;;;11.20;99.90;;;;;;5051074;28;20389;-73
2022/12/06 04:23:38;;;;;;;9.45;5.68;;;11.20;99.90;;;;;;5058156;28;20039;-74
2022/12/06 04:26:06;;;;;;;11.55;6.53;;;11.20;99.90;;;;;;5051575;28;20056;-73
2022/12/06 04:39:32;;;;;;;13.15;6.63;;;11.10;99.90;;;;;;5063517;28;20055;-72
2022/12/06 04:44:43;;;;;;;9.85;6.70;;;11.10;99.90;;;;;;5054946;28;20526;-73
2022/12/06 04:47:10;;;;;;;10.05;6.43;;;11.00;99.90;;;;;;5056981;28;20112;-72
2022/12/06 04:49:36;;;;;;;9.90;6.80;;;11.10;99.90;;;;;;5054294;28;20053;-73
2022/12/06 04:52:04;;;;;;;10.43;6.63;;;11.10;99.90;;;;;;5056980;28;20040;-73
2022/12/06 04:54:30;;;;;;;11.85;6.40;;;11.00;99.90;;;;;;5054079;28;20028;-72
2022/12/06 04:56:57;;;;;;;10.75;6.15;;;11.00;99.90;;;;;;5053436;28;20033;-73
2022/12/06 04:59:24;;;;;;;11.02;6.80;;;11.00;99.90;;;;;;5053008;28;20115;-73
2022/12/06 05:01:51;;;;;;;10.80;6.40;;;11.00;99.90;;;;;;5061247;28;20487;-73
2022/12/06 05:04:17;;;;;;;9.98;6.63;;;11.00;99.90;;;;;;5057029;28;20029;-72
2022/12/06 05:06:42;;;;;;;12.13;6.55;;;11.00;99.90;;;;;;5057077;28;20025;-74
2022/12/06 05:09:08;;;;;;;9.85;5.78;;;11.00;99.90;;;;;;5061680;28;20411;-73
2022/12/06 05:11:34;;;;;;;11.68;6.80;;;10.90;99.90;;;;;;5054632;28;20045;-74
2022/12/06 05:14:00;;;;;;;12.60;6.50;;;10.90;99.90;;;;;;5058342;28;20513;-73
2022/12/06 05:16:26;;;;;;;11.70;7.40;;;11.00;99.90;;;;;;5054277;28;20044;-73
2022/12/06 05:18:52;;;;;;;10.70;6.70;;;10.90;99.90;;;;;;5059944;28;20480;-73
2022/12/06 05:21:21;;;;;;;9.93;6.55;;;10.90;99.90;;;;;;5059885;28;20124;-73
2022/12/06 05:23:47;;;;;;;10.77;6.63;;;10.90;99.90;;;;;;5062753;28;20029;-72
2022/12/06 05:26:17;;;;;;;11.20;6.95;;;10.90;99.90;;;;;;5055586;28;20028;-72
2022/12/06 05:28:44;;;;;;;10.80;6.70;;;10.90;99.90;;;;;;5062356;28;20151;-73
2022/12/06 05:31:10;;;;;;;10.40;6.32;;;10.90;99.90;;;;;;5062758;28;20030;-72
2022/12/06 05:33:37;;;;;;;11.13;6.65;;;10.90;99.90;;;;;;5056744;28;20068;-73
2022/12/06 05:36:08;;;;;;;11.02;7.13;;;10.90;99.90;;;;;;5062944;28;20039;-73
2022/12/06 05:38:34;;;;;;;10.82;6.35;;;10.90;99.90;;;;;;5066172;28;22715;-73
2022/12/06 05:41:01;;;;;;;10.18;6.40;;;10.90;99.90;;;;;;5061008;28;20086;-75
2022/12/06 05:43:28;;;;;;;9.80;5.97;;;10.90;99.90;;;;;;5061399;28;20187;-74
2022/12/06 05:45:54;;;;;;;9.48;6.03;;;11.00;99.90;;;;;;5060409;28;20040;-74
2022/12/06 05:48:20;;;;;;;10.55;6.30;;;11.00;99.90;;;;;;5071750;28;20040;-72
2022/12/06 05:50:47;;;;;;;10.43;6.55;;;11.00;99.90;;;;;;5053917;28;20427;-73
2022/12/06 05:53:13;;;;;;;11.02;6.38;;;11.00;99.90;;;;;;5056027;28;20502;-74
2022/12/06 05:55:39;;;;;;;12.02;7.95;;;11.00;99.90;;;;;;5056801;28;20078;-73
2022/12/06 05:58:05;;;;;;;14.75;8.73;;;11.00;99.90;;;;;;5061552;28;20033;-73
2022/12/06 06:00:31;;;;;;;12.00;6.88;;;11.00;99.90;;;;;;5065380;28;20059;-73
2022/12/06 06:02:57;;;;;;;10.85;6.82;;;11.00;99.90;;;;;;5063781;28;20041;-73
2022/12/06 06:05:23;;;;;;;10.55;6.85;;;11.00;99.90;;;;;;5060526;28;20033;-74
2022/12/06 06:07:49;;;;;;;10.88;7.18;;;10.90;99.90;;;;;;5059403;28;20052;-74
2022/12/06 06:10:15;;;;;;;12.20;6.63;;;10.90;99.90;;;;;;5060342;28;20994;-73
2022/12/06 06:12:43;;;;;;;11.35;6.80;;;11.00;99.90;;;;;;5054349;28;20037;-73
2022/12/06 06:15:10;;;;;;;11.00;6.03;;;11.00;99.90;;;;;;5057740;28;20040;-74
2022/12/06 06:17:36;;;;;;;10.95;6.10;;;11.00;99.90;;;;;;5060282;28;20495;-73
2022/12/06 06:20:05;;;;;;;10.00;6.45;;;11.00;99.90;;;;;;5060172;28;20037;-73
2022/12/06 06:22:33;;;;;;;10.55;6.47;;;11.00;99.90;;;;;;5061080;28;20044;-74
2022/12/06 06:24:59;;;;;;;10.65;6.47;;;11.00;99.90;;;;;;5059108;28;20044;-74
2022/12/06 06:27:27;;;;;;;12.23;6.80;;;11.00;99.90;;;;;;5057665;28;20535;-73
2022/12/06 06:29:53;;;;;;;10.38;6.93;;;11.00;99.90;;;;;;5056768;28;20148;-73
2022/12/06 06:32:19;;;;;;;10.93;7.78;;;11.00;99.90;;;;;;5061207;28;20119;-76
2022/12/06 06:34:44;;;;;;;13.93;7.28;;;11.00;99.90;;;;;;5058876;28;20066;-75
2022/12/06 06:37:10;;;;;;;9.98;6.55;;;11.00;99.90;;;;;;5053565;28;20128;-72
2022/12/06 06:39:36;;;;;;;11.23;6.25;;;11.00;99.90;;;;;;5059134;28;20033;-73
2022/12/06 06:42:03;;;;;;;15.00;7.60;;;11.00;99.90;;;;;;5062695;28;20033;-72
2022/12/06 06:44:29;;;;;;;11.23;6.75;;;11.00;99.90;;;;;;5060990;28;20048;-72
2022/12/06 06:46:54;;;;;;;12.07;7.03;;;10.90;99.90;;;;;;5060475;28;20044;-73
2022/12/06 06:49:20;;;;;;;10.07;6.65;;;10.90;99.90;;;;;;5061678;28;20032;-73
2022/12/06 06:51:46;;;;;;;12.63;8.07;;;10.90;99.90;;;;;;5063532;28;20032;-73
2022/12/06 06:54:12;;;;;;;11.15;7.20;;;10.90;99.90;;;;;;5051828;28;20124;-73
2022/12/06 06:56:38;;;;;;;11.23;7.13;;;10.90;99.90;;;;;;5060016;28;20037;-73
2022/12/06 06:59:03;;;;;;;12.15;7.28;;;10.90;99.90;;;;;;5048201;28;20029;-72
2022/12/06 07:01:29;;;;;;;12.75;6.57;;;10.90;99.90;;;;;;5051402;28;20098;-74
2022/12/06 07:03:55;;;;;;;10.75;6.72;;;10.90;99.90;;;;;;5062962;28;20037;-73
2022/12/06 07:06:21;;;;;;;10.25;6.43;;;11.00;99.90;;;;;;5053454;28;20029;-73
2022/12/06 07:08:47;;;;;;;12.45;6.70;;;11.00;99.90;;;;;;5055597;28;20468;-73
2022/12/06 07:11:14;;;;;;;13.38;7.13;;;11.00;99.90;;;;;;5053265;28;20039;-73
2022/12/06 07:13:41;;;;;;;9.05;6.13;;;11.00;99.90;;;;;;5052161;28;20042;-73
2022/12/06 07:16:12;;;;;;;11.73;6.75;;;11.00;99.90;;;;;;5051846;28;20032;-73
2022/12/06 07:18:38;;;;;;;11.02;6.00;;;11.00;99.90;;;;;;5057455;28;20082;-73
2022/12/06 07:21:06;;;;;;;11.55;6.40;;;11.00;99.90;;;;;;5053595;28;20445;-73
2022/12/06 07:23:34;;;;;;;10.00;5.70;;;11.00;99.90;;;;;;5056860;28;20448;-73
2022/12/06 07:26:02;;;;;;;10.20;6.10;;;11.10;99.90;;;;;;5056088;28;20037;-73
2022/12/06 07:28:27;;;;;;;9.27;6.05;;;11.10;99.90;;;;;;5067521;28;20029;-74
2022/12/06 07:30:53;;;;;;;9.82;6.10;;;11.10;99.90;;;;;;5056162;28;20148;-73
2022/12/06 07:33:19;;;;;;;9.00;5.40;;;11.20;99.90;;;;;;5050037;28;20486;-73
2022/12/06 07:35:51;;;;;;;10.93;6.03;;;11.20;99.90;;;;;;5069788;28;20032;-74
2022/12/06 07:38:17;;;;;;;9.82;6.28;;;11.20;99.90;;;;;;5060652;28;20498;-72
2022/12/06 07:40:43;;;;;;;10.05;5.30;;;11.20;99.90;;;;;;5054868;28;20439;-74
2022/12/06 07:45:54;;;;;;;9.35;6.43;;;11.20;99.90;;;;;;5054620;28;20055;-74
2022/12/06 07:48:19;;;;;;;12.38;6.70;;;11.20;99.90;;;;;;5053794;28;20040;-73
2022/12/06 07:50:46;;;;;;;14.00;8.32;;;11.20;99.90;;;;;;5062615;28;20021;-73
2022/12/06 07:53:13;;;;;;;11.32;6.60;;;11.30;99.90;;;;;;5057375;28;20051;-73
2022/12/06 07:55:39;;;;;;;10.20;6.28;;;11.30;99.90;;;;;;5060579;28;20063;-73
2022/12/06 07:58:05;;;;;;;10.43;6.20;;;11.40;99.90;;;;;;5052627;28;20040;-73
2022/12/06 08:00:31;;;;;;;10.15;6.47;;;11.40;99.90;;;;;;5042220;28;20044;-73
2022/12/06 08:02:56;;;;;;;10.68;6.80;;;11.50;99.90;;;;;;5057451;28;20035;-73
2022/12/06 08:05:22;;;;;;;9.63;6.10;;;11.50;99.90;;;;;;5055258;28;20048;-74
2022/12/06 08:07:48;;;;;;;11.43;6.75;;;11.60;99.90;;;;;;5052528;28;20502;-73
2022/12/06 08:10:14;;;;;;;11.63;5.95;;;11.60;99.90;;;;;;5053329;28;20036;-74
2022/12/06 08:12:39;;;;;;;10.52;5.32;;;11.70;99.90;;;;;;5049623;28;20378;-74
2022/12/06 08:15:11;;;;;;;9.35;5.70;;;11.80;99.90;;;;;;5046938;28;20071;-73
2022/12/06 08:17:41;;;;;;;8.98;5.75;;;11.90;99.90;;;;;;5030697;28;20468;-74
2022/12/06 08:20:08;;;;;;;10.02;6.05;;;12.00;99.90;;;;;;5042022;28;20071;-73
2022/12/06 08:22:33;;;;;;;;;;;12.10;99.90;;;;;;5038070;28;20041;-74
2022/12/06 08:24:59;;;;;;;9.50;5.93;;;12.20;99.90;;;;;;5024116;28;20012;-73
2022/12/06 08:27:25;;;;;;;9.20;5.15;;;12.30;99.90;;;;;;5033546;28;20439;-74
2022/12/06 08:29:51;;;;;;;11.07;5.82;;;12.40;99.90;;;;;;5038863;28;20048;-74
2022/12/06 08:32:17;;;;;;;9.80;5.57;;;12.50;99.90;;;;;;5039550;28;20518;-73
2022/12/06 08:34:43;;;;;;;9.30;5.53;;;12.60;99.90;;;;;;5035181;28;20174;-74
2022/12/06 08:37:10;;;;;;;9.25;5.65;;;12.60;99.90;;;;;;5031540;28;20045;-73
2022/12/06 08:39:35;;;;;;;;;;;12.70;99.90;;;;;;5036544;28;20025;-73
2022/12/06 08:42:05;;;;;;;9.82;5.45;;;12.80;99.90;;;;;;5042223;28;20398;-72
2022/12/06 08:44:31;;;;;;;11.98;6.40;;;12.90;99.90;;;;;;5021993;28;20137;-73
2022/12/06 08:46:59;;;;;;;10.07;5.50;;;13.00;99.90;;;;;;5021409;28;20049;-73
2022/12/06 08:49:26;;;;;;;9.27;6.38;;;13.00;99.90;;;;;;5032818;28;20043;-73
2022/12/06 08:51:54;;;;;;;9.93;6.32;;;13.20;99.90;;;;;;5037088;28;20923;-73
2022/12/06 08:54:22;;;;;;;10.25;5.45;;;13.40;99.90;;;;;;5036225;28;20033;-72
2022/12/06 08:56:49;;;;;;;8.70;5.05;;;13.60;99.90;;;;;;5038076;28;20383;-73
2022/12/06 08:59:16;;;;;;;9.43;6.07;;;13.60;99.90;;;;;;5038284;28;20037;-72
2022/12/06 09:01:41;;;;;;;8.63;5.60;;;13.70;99.90;;;;;;5039017;28;20045;-73
2022/12/06 09:04:09;;;;;;;9.27;5.82;;;13.70;99.90;;;;;;5021994;28;20156;-73
2022/12/06 09:06:40;;;;;;;9.75;5.85;;;13.80;99.90;;;;;;5044420;28;20045;-73
2022/12/06 09:09:07;;;;;;;9.30;5.25;;;13.90;99.90;;;;;;5039341;28;20362;-73
2022/12/06 09:11:33;;;;;;;10.88;6.82;;;13.90;99.90;;;;;;5042371;28;20089;-73
2022/12/06 09:13:59;;;;;;;9.90;6.53;;;14.00;99.90;;;;;;5035391;28;20433;-73
2022/12/06 09:16:25;;;;;;;9.88;6.82;;;14.20;99.90;;;;;;5034551;28;20041;-73
2022/12/06 09:18:51;;;;;;;9.70;6.57;;;14.40;99.90;;;;;;5034521;28;20041;-72
2022/12/06 09:21:22;;;;;;;9.65;6.30;;;14.60;99.90;;;;;;5031641;28;20091;-74
2022/12/06 09:23:49;;;;;;;10.20;6.68;;;15.30;99.90;;;;;;5027231;28;20044;-73
2022/12/06 09:26:15;;;;;;;;;;;15.60;99.90;;;;;;5043304;28;20040;-72
2022/12/06 09:28:43;;;;;;;9.60;6.53;;;15.60;99.90;;;;;;5028388;28;19912;-73
2022/12/06 09:31:09;;;;;;;8.77;5.60;;;15.60;99.90;;;;;;5055575;28;20159;-73
2022/12/06 09:33:36;;;;;;;10.10;6.68;;;15.70;99.90;;;;;;5059872;28;20036;-74
2022/12/06 09:36:11;;;;;;;11.25;6.03;;;15.80;99.90;;;;;;5054842;28;20070;-73
2022/12/06 09:38:40;;;;;;;13.50;7.13;;;15.90;99.90;;;;;;5055499;28;20527;-73
2022/12/06 09:41:11;;;;;;;17.30;9.77;;;15.70;99.90;;;;;;5059496;28;20136;-73
2022/12/06 09:43:45;;;;;;;13.20;7.15;;;16.10;99.90;;;;;;5064955;28;20107;-73
2022/12/06 09:46:45;;;;;;;10.40;6.28;;;16.50;99.90;;;;;;5054267;28;20554;-72
2022/12/06 09:49:30;;;;;;;11.25;6.22;;;16.90;99.90;;;;;;5043052;28;20041;-74
2022/12/06 09:52:03;;;;;;;9.25;6.70;;;16.50;99.90;;;;;;5053276;28;20488;-74
2022/12/06 09:54:50;;;;;;;11.23;6.63;;;16.00;99.90;;;;;;5051827;28;20037;-74
2022/12/06 09:57:49;;;;;;;7.97;5.25;;;15.80;99.90;;;;;;5046880;28;20043;-73
2022/12/06 10:00:19;;;;;;;10.95;6.38;;;16.60;99.90;;;;;;5033768;28;20045;-74
2022/12/06 10:03:07;;;;;;;9.98;6.75;;;16.90;99.90;;;;;;5067120;28;20491;-74
2022/12/06 10:05:46;;;;;;;9.70;6.03;;;16.60;99.90;;;;;;5036245;28;20443;-72
2022/12/06 10:08:49;;;;;;;9.48;5.90;;;16.20;99.90;;;;;;5032969;28;20032;-75
2022/12/06 10:11:21;;;;;;;9.52;6.22;;;16.00;99.90;;;;;;5049555;28;20120;-73
2022/12/06 10:14:12;;;;;;;9.23;5.82;;;16.20;99.90;;;;;;5051579;28;20060;-72
2022/12/06 10:16:59;;;;;;;11.68;6.57;;;17.10;99.90;;;;;;5033992;28;20045;-73
2022/12/06 10:19:54;;;;;;;12.23;7.10;;;17.70;99.90;;;;;;5036901;28;20095;-73
2022/12/06 10:22:50;;;;;;;11.05;7.20;;;17.40;99.90;;;;;;5012956;28;20082;-73
2022/12/06 10:25:29;;;;;;;10.23;7.30;;;17.10;99.90;;;;;;5034329;28;20072;-72
2022/12/06 10:28:03;;;;;;;12.65;7.10;;;16.60;99.90;;;;;;5037747;28;20477;-73
2022/12/06 10:30:29;;;;;;;11.38;6.93;;;16.40;99.90;;;;;;5056756;28;20041;-73
2022/12/06 10:33:13;;;;;;;11.70;7.25;;;16.50;99.90;;;;;;5066610;28;20025;-73
2022/12/06 10:35:52;;;;;;;13.23;7.47;;;15.80;99.90;;;;;;5055261;28;20078;-73
2022/12/06 10:38:33;;;;;;;11.80;7.35;;;16.10;99.90;;;;;;5070851;28;20101;-73
2022/12/06 10:41:13;;;;;;;12.25;7.05;;;16.30;99.90;;;;;;5055944;28;20037;-73
2022/12/06 10:43:56;;;;;;;9.70;6.75;;;16.30;99.90;;;;;;5057287;28;20091;-74
2022/12/06 10:47:03;;;;;;;11.13;6.15;;;16.20;99.90;;;;;;5035934;28;20045;-74
2022/12/06 10:49:51;;;;;;;10.55;6.10;;;16.10;99.90;;;;;;5031604;28;20072;-73
2022/12/06 10:52:43;;;;;;;10.27;6.45;;;16.10;99.90;;;;;;5037539;28;20504;-72
2022/12/06 10:55:09;;;;;;;15.85;7.00;;;15.80;99.90;;;;;;5034282;28;20032;-72
2022/12/06 10:58:01;;;;;;;12.50;8.00;;;15.60;99.90;;;;;;5040971;28;20041;-72
2022/12/06 11:00:36;;;;;;;12.80;8.35;;;15.70;99.90;;;;;;5032493;28;20029;-73
2022/12/06 11:03:19;;;;;;;12.50;9.10;;;15.50;99.90;;;;;;5037203;28;20065;-73
2022/12/06 11:06:00;;;;;;;15.10;8.80;;;15.90;99.90;;;;;;5054199;28;20090;-72
2022/12/06 11:08:32;;;;;;;17.20;9.20;;;16.10;99.90;;;;;;5051571;28;20033;-73
2022/12/06 11:11:00;;;;;;;16.05;9.63;;;16.40;99.90;;;;;;5058956;28;20040;-72
2022/12/06 11:13:37;;;;;;;14.18;9.40;;;16.70;99.90;;;;;;5054496;28;20064;-72
2022/12/06 11:16:25;;;;;;;12.98;8.40;;;17.10;99.90;;;;;;5055482;28;20040;-72
2022/12/06 11:18:59;;;;;;;15.10;9.20;;;17.40;99.90;;;;;;5041493;28;20508;-73
2022/12/06 11:21:45;;;;;;;14.00;8.75;;;17.30;99.90;;;;;;5035571;28;20029;-72
2022/12/06 11:24:31;;;;;;;13.50;8.50;;;17.40;99.90;;;;;;5047548;28;20033;-72
2022/12/06 11:27:09;;;;;;;16.05;9.20;;;17.90;99.90;;;;;;5045215;28;20148;-72
2022/12/06 11:29:36;;;;;;;14.85;9.68;;;18.00;99.90;;;;;;5054227;28;20112;-73
2022/12/06 11:32:06;;;;;;;14.70;9.00;;;18.10;99.90;;;;;;5057159;28;20041;-72
2022/12/06 11:34:36;;;;;;;15.18;8.73;;;18.30;99.90;;;;;;5059836;28;20496;-72
2022/12/06 11:37:03;;;;;;;14.90;8.10;;;18.20;99.90;;;;;;5047195;28;20119;-73
2022/12/06 11:39:31;;;;;;;11.38;6.75;;;17.90;99.90;;;;;;5065585;28;20032;-72
2022/12/06 11:42:01;;;;;;;12.05;7.07;;;17.90;99.90;;;;;;5058215;28;20036;-73
2022/12/06 11:44:35;;;;;;;12.98;6.85;;;18.00;99.90;;;;;;5056838;28;20116;-72
2022/12/06 11:47:02;;;;;;;10.65;6.20;;;17.50;99.90;;;;;;5055533;28;20123;-73
2022/12/06 11:49:37;;;;;;;11.70;7.22;;;17.40;99.90;;;;;;5069801;28;20037;-72
2022/12/06 11:52:20;;;;;;;10.30;6.63;;;17.10;99.90;;;;;;5052826;28;20488;-73
2022/12/06 11:54:55;;;;;;;10.30;6.72;;;17.90;99.90;;;;;;5054695;28;20530;-73
2022/12/06 11:57:27;;;;;;;13.13;7.18;;;17.90;99.90;;;;;;5046247;28;20041;-73
2022/12/06 12:00:11;;;;;;;11.95;7.57;;;17.00;99.90;;;;;;5064003;28;20123;-73
2022/12/06 12:02:38;;;;;;;11.90;7.25;;;16.30;99.90;;;;;;5073403;28;20044;-72
2022/12/06 12:05:20;;;;;;;12.02;7.00;;;16.40;99.90;;;;;;5057391;28;20530;-73
2022/12/06 12:08:01;;;;;;;10.93;7.10;;;17.10;99.90;;;;;;5055959;28;20025;-72
2022/12/06 12:10:35;;;;;;;11.65;6.97;;;17.50;99.90;;;;;;5054794;28;20112;-73
2022/12/06 12:15:59;;;;;;;9.80;6.65;;;17.50;99.90;;;;;;5059003;28;20086;-73
2022/12/06 12:18:32;;;;;;;11.55;6.68;;;17.80;99.90;;;;;;5060923;28;20033;-73
2022/12/06 12:20:58;;;;;;;13.43;7.50;;;17.90;99.90;;;;;;5060172;28;20116;-73
2022/12/06 12:23:32;;;;;;;12.00;6.55;;;17.90;99.90;;;;;;5059281;28;20095;-72
2022/12/06 12:26:09;;;;;;;13.70;7.50;;;18.30;99.90;;;;;;5058679;28;20511;-73
2022/12/06 12:28:37;;;;;;;11.48;7.60;;;18.40;99.90;;;;;;5041295;28;20491;-73
2022/12/06 12:31:22;;;;;;;10.20;7.00;;;17.70;99.90;;;;;;5028017;28;20037;-73
2022/12/06 12:33:48;;;;;;;14.10;7.35;;;17.90;99.90;;;;;;5024998;28;20044;-72
2022/12/06 12:36:27;;;;;;;11.48;7.10;;;18.10;99.90;;;;;;5044760;28;20037;-73
2022/12/06 12:38:59;;;;;;;10.55;6.47;;;18.90;99.90;;;;;;5035102;28;20045;-72
2022/12/06 12:41:45;;;;;;;11.27;7.30;;;19.50;99.90;;;;;;5039555;28;20026;-73
2022/12/06 12:44:36;;;;;;;12.30;7.75;;;19.00;99.90;;;;;;5038397;28;20384;-72
2022/12/06 12:47:12;;;;;;;13.73;8.73;;;19.40;99.90;;;;;;5038990;28;20326;-74
2022/12/06 12:49:39;;;;;;;12.70;8.02;;;20.00;99.90;;;;;;5040121;28;20047;-74
2022/12/06 12:52:38;;;;;;;15.88;9.20;;;20.90;99.90;;;;;;5043233;28;20053;-73
2022/12/06 12:55:18;;;;;;;17.73;12.45;;;21.90;99.90;;;;;;5007083;28;20044;-74
2022/12/06 12:57:47;;;;;;;12.55;9.10;;;22.50;99.80;;;;;;5052547;28;20075;-72
2022/12/06 13:00:31;;;;;;;12.88;9.25;;;23.10;98.40;;;;;;5057119;28;20106;-72
2022/12/06 13:03:00;;;;;;;13.63;9.65;;;23.80;97.50;;;;;;5049799;28;20036;-73
2022/12/06 13:05:33;;;;;;;13.20;9.10;;;24.70;96.70;;;;;;5051122;28;20037;-72
2022/12/06 13:08:21;;;;;;;13.82;8.60;;;24.40;96.30;;;;;;5046616;28;20560;-72
2022/12/06 13:10:49;;;;;;;11.95;8.73;;;24.70;96.00;;;;;;5055825;28;20029;-73
2022/12/06 13:13:25;;;;;;;14.98;9.23;;;24.90;96.00;;;;;;5053358;28;20048;-70
2022/12/06 13:15:53;;;;;;;15.27;10.45;;;25.50;95.40;;;;;;5049573;28;20051;-69
2022/12/06 13:18:26;;;;;;;13.57;9.77;;;24.50;95.80;;;;;;5047145;28;20036;-73
2022/12/06 13:20:55;;;;;;;12.20;10.30;;;24.80;95.40;;;;;;5045436;28;20049;-72
2022/12/06 13:23:29;;;;;;;20.00;13.45;;;24.70;95.40;;;;;;5052534;28;20041;-72
2022/12/06 13:26:10;;;;;;;15.82;11.88;;;24.90;95.20;;;;;;5070662;28;20059;-73